sensor_id;sensor_type;location;lat;lon;timestamp;P1;durP1;ratioP1;P2;durP2;ratioP2
49826;SDS011;35715;51.570;6.036;2022-09-09T00:01:51;4.78;;;1.48;;
49826;SDS011;35715;51.570;6.036;2022-09-09T00:07:03;1.52;;;1.42;;
49826;SDS011;35715;51.570;6.036;2022-09-09T00:09:49;4.65;;;2.20;;
49826;SDS011;35715;51.570;6.036;2022-09-09T00:15:19;2.30;;;1.23;;
49826;SDS011;35715;51.570;6.036;2022-09-09T00:17:51;2.40;;;1.58;;
49826;SDS011;35715;51.570;6.036;2022-09-09T00:20:32;1.50;;;1.40;;
49826;SDS011;35715;51.570;6.036;2022-09-09T00:23:11;3.15;;;1.40;;
49826;SDS011;35715;51.570;6.036;2022-09-09T00:28:46;1.60;;;1.50;;
49826;SDS011;35715;51.570;6.036;2022-09-09T00:31:23;1.35;;;1.08;;
49826;SDS011;35715;51.570;6.036;2022-09-09T00:33:52;3.25;;;1.33;;
49826;SDS011;35715;51.570;6.036;2022-09-09T00:36:21;1.40;;;1.20;;
49826;SDS011;35715;51.570;6.036;2022-09-09T00:39:00;3.35;;;2.00;;
49826;SDS011;35715;51.570;6.036;2022-09-09T00:44:20;5.80;;;1.35;;
49826;SDS011;35715;51.570;6.036;2022-09-09T00:47:02;3.72;;;1.70;;
49826;SDS011;35715;51.570;6.036;2022-09-09T00:49:57;3.63;;;1.60;;
49826;SDS011;35715;51.570;6.036;2022-09-09T00:57:40;5.20;;;2.05;;
49826;SDS011;35715;51.570;6.036;2022-09-09T01:00:20;4.85;;;1.40;;
49826;SDS011;35715;51.570;6.036;2022-09-09T01:08:14;2.33;;;1.67;;
49826;SDS011;35715;51.570;6.036;2022-09-09T01:11:04;1.70;;;1.50;;
49826;SDS011;35715;51.570;6.036;2022-09-09T01:13:34;4.72;;;1.73;;
49826;SDS011;35715;51.570;6.036;2022-09-09T01:16:04;1.58;;;1.48;;
49826;SDS011;35715;51.570;6.036;2022-09-09T01:18:40;6.60;;;2.25;;
49826;SDS011;35715;51.570;6.036;2022-09-09T01:24:32;1.67;;;1.35;;
49826;SDS011;35715;51.570;6.036;2022-09-09T01:27:06;5.13;;;1.98;;
49826;SDS011;35715;51.570;6.036;2022-09-09T01:29:34;4.40;;;1.52;;
49826;SDS011;35715;51.570;6.036;2022-09-09T01:32:00;3.22;;;1.70;;
49826;SDS011;35715;51.570;6.036;2022-09-09T01:34:31;2.25;;;2.03;;
49826;SDS011;35715;51.570;6.036;2022-09-09T01:37:02;3.80;;;2.10;;
49826;SDS011;35715;51.570;6.036;2022-09-09T01:39:36;3.75;;;2.33;;
49826;SDS011;35715;51.570;6.036;2022-09-09T01:42:04;8.35;;;2.47;;
49826;SDS011;35715;51.570;6.036;2022-09-09T01:44:32;3.85;;;1.38;;
49826;SDS011;35715;51.570;6.036;2022-09-09T01:46:59;2.92;;;1.50;;
49826;SDS011;35715;51.570;6.036;2022-09-09T01:49:25;3.65;;;1.88;;
49826;SDS011;35715;51.570;6.036;2022-09-09T01:51:52;3.35;;;2.17;;
49826;SDS011;35715;51.570;6.036;2022-09-09T01:54:19;2.45;;;1.77;;
49826;SDS011;35715;51.570;6.036;2022-09-09T02:02:19;2.65;;;1.98;;
49826;SDS011;35715;51.570;6.036;2022-09-09T02:04:55;7.18;;;2.78;;
49826;SDS011;35715;51.570;6.036;2022-09-09T02:07:40;7.75;;;1.90;;
49826;SDS011;35715;51.570;6.036;2022-09-09T02:10:11;3.08;;;1.92;;
49826;SDS011;35715;51.570;6.036;2022-09-09T02:12:42;5.03;;;2.63;;
49826;SDS011;35715;51.570;6.036;2022-09-09T02:15:15;5.80;;;2.45;;
49826;SDS011;35715;51.570;6.036;2022-09-09T02:17:46;4.95;;;2.60;;
49826;SDS011;35715;51.570;6.036;2022-09-09T02:22:44;3.08;;;2.63;;
49826;SDS011;35715;51.570;6.036;2022-09-09T02:25:14;8.90;;;3.40;;
49826;SDS011;35715;51.570;6.036;2022-09-09T02:27:45;10.80;;;3.60;;
49826;SDS011;35715;51.570;6.036;2022-09-09T02:32:42;6.72;;;2.85;;
49826;SDS011;35715;51.570;6.036;2022-09-09T02:35:12;7.20;;;3.63;;
49826;SDS011;35715;51.570;6.036;2022-09-09T02:37:40;5.15;;;2.60;;
49826;SDS011;35715;51.570;6.036;2022-09-09T02:40:08;5.65;;;3.72;;
49826;SDS011;35715;51.570;6.036;2022-09-09T02:42:39;3.03;;;2.65;;
49826;SDS011;35715;51.570;6.036;2022-09-09T02:45:06;6.43;;;3.00;;
49826;SDS011;35715;51.570;6.036;2022-09-09T02:50:27;6.88;;;2.78;;
49826;SDS011;35715;51.570;6.036;2022-09-09T02:58:16;11.85;;;3.15;;
49826;SDS011;35715;51.570;6.036;2022-09-09T03:00:51;4.90;;;2.58;;
49826;SDS011;35715;51.570;6.036;2022-09-09T03:03:18;5.63;;;2.05;;
49826;SDS011;35715;51.570;6.036;2022-09-09T03:05:44;6.65;;;3.17;;
49826;SDS011;35715;51.570;6.036;2022-09-09T03:08:11;6.43;;;2.83;;
49826;SDS011;35715;51.570;6.036;2022-09-09T03:10:40;4.22;;;2.05;;
49826;SDS011;35715;51.570;6.036;2022-09-09T03:13:05;5.78;;;2.50;;
49826;SDS011;35715;51.570;6.036;2022-09-09T03:15:31;8.48;;;2.35;;
49826;SDS011;35715;51.570;6.036;2022-09-09T03:17:57;5.72;;;2.58;;
49826;SDS011;35715;51.570;6.036;2022-09-09T03:20:25;3.08;;;2.30;;
49826;SDS011;35715;51.570;6.036;2022-09-09T03:22:51;4.00;;;2.03;;
49826;SDS011;35715;51.570;6.036;2022-09-09T03:25:17;4.55;;;2.67;;
49826;SDS011;35715;51.570;6.036;2022-09-09T03:27:46;8.18;;;2.50;;
49826;SDS011;35715;51.570;6.036;2022-09-09T03:32:49;4.50;;;2.20;;
49826;SDS011;35715;51.570;6.036;2022-09-09T03:35:14;7.45;;;2.78;;
49826;SDS011;35715;51.570;6.036;2022-09-09T03:37:40;11.20;;;3.28;;
49826;SDS011;35715;51.570;6.036;2022-09-09T03:40:07;6.03;;;3.13;;
49826;SDS011;35715;51.570;6.036;2022-09-09T03:42:34;6.70;;;2.33;;
49826;SDS011;35715;51.570;6.036;2022-09-09T03:45:02;4.55;;;2.95;;
49826;SDS011;35715;51.570;6.036;2022-09-09T03:47:28;16.80;;;3.55;;
49826;SDS011;35715;51.570;6.036;2022-09-09T03:49:56;4.47;;;2.40;;
49826;SDS011;35715;51.570;6.036;2022-09-09T03:52:21;5.28;;;3.03;;
49826;SDS011;35715;51.570;6.036;2022-09-09T03:54:50;5.30;;;2.70;;
49826;SDS011;35715;51.570;6.036;2022-09-09T03:57:16;4.97;;;3.00;;
49826;SDS011;35715;51.570;6.036;2022-09-09T03:59:45;5.07;;;3.22;;
49826;SDS011;35715;51.570;6.036;2022-09-09T04:02:10;3.92;;;2.70;;
49826;SDS011;35715;51.570;6.036;2022-09-09T04:04:35;8.35;;;2.90;;
49826;SDS011;35715;51.570;6.036;2022-09-09T04:07:01;9.35;;;2.42;;
49826;SDS011;35715;51.570;6.036;2022-09-09T04:09:35;6.07;;;3.38;;
49826;SDS011;35715;51.570;6.036;2022-09-09T04:12:00;9.05;;;3.17;;
49826;SDS011;35715;51.570;6.036;2022-09-09T04:14:26;14.48;;;3.10;;
49826;SDS011;35715;51.570;6.036;2022-09-09T04:16:53;3.20;;;2.90;;
49826;SDS011;35715;51.570;6.036;2022-09-09T04:19:19;11.45;;;3.33;;
49826;SDS011;35715;51.570;6.036;2022-09-09T04:21:44;4.07;;;2.85;;
49826;SDS011;35715;51.570;6.036;2022-09-09T04:24:10;6.20;;;2.60;;
49826;SDS011;35715;51.570;6.036;2022-09-09T04:26:35;9.50;;;2.92;;
49826;SDS011;35715;51.570;6.036;2022-09-09T04:29:02;4.53;;;2.67;;
49826;SDS011;35715;51.570;6.036;2022-09-09T04:31:28;3.63;;;2.55;;
49826;SDS011;35715;51.570;6.036;2022-09-09T04:33:54;13.90;;;3.92;;
49826;SDS011;35715;51.570;6.036;2022-09-09T04:36:19;10.80;;;3.75;;
49826;SDS011;35715;51.570;6.036;2022-09-09T04:38:45;10.43;;;2.40;;
49826;SDS011;35715;51.570;6.036;2022-09-09T04:44:07;3.30;;;1.88;;
49826;SDS011;35715;51.570;6.036;2022-09-09T04:46:33;5.70;;;2.08;;
49826;SDS011;35715;51.570;6.036;2022-09-09T04:48:59;6.43;;;2.33;;
49826;SDS011;35715;51.570;6.036;2022-09-09T04:54:29;10.20;;;2.55;;
49826;SDS011;35715;51.570;6.036;2022-09-09T04:56:54;6.03;;;2.65;;
49826;SDS011;35715;51.570;6.036;2022-09-09T04:59:20;5.35;;;3.30;;
49826;SDS011;35715;51.570;6.036;2022-09-09T05:01:46;5.70;;;2.45;;
49826;SDS011;35715;51.570;6.036;2022-09-09T05:04:12;8.50;;;2.28;;
49826;SDS011;35715;51.570;6.036;2022-09-09T05:06:38;8.38;;;2.25;;
49826;SDS011;35715;51.570;6.036;2022-09-09T05:09:03;4.07;;;2.08;;
49826;SDS011;35715;51.570;6.036;2022-09-09T05:11:35;5.15;;;2.25;;
49826;SDS011;35715;51.570;6.036;2022-09-09T05:14:02;3.00;;;2.03;;
49826;SDS011;35715;51.570;6.036;2022-09-09T05:16:28;7.72;;;2.72;;
49826;SDS011;35715;51.570;6.036;2022-09-09T05:18:54;8.30;;;1.90;;
49826;SDS011;35715;51.570;6.036;2022-09-09T05:21:23;6.38;;;2.03;;
49826;SDS011;35715;51.570;6.036;2022-09-09T05:23:51;5.30;;;2.65;;
49826;SDS011;35715;51.570;6.036;2022-09-09T05:26:18;8.75;;;2.92;;
49826;SDS011;35715;51.570;6.036;2022-09-09T05:28:45;5.80;;;2.42;;
49826;SDS011;35715;51.570;6.036;2022-09-09T05:31:20;9.23;;;3.05;;
49826;SDS011;35715;51.570;6.036;2022-09-09T05:33:46;9.65;;;3.17;;
49826;SDS011;35715;51.570;6.036;2022-09-09T05:38:44;11.13;;;2.92;;
49826;SDS011;35715;51.570;6.036;2022-09-09T05:41:10;10.18;;;2.60;;
49826;SDS011;35715;51.570;6.036;2022-09-09T05:43:37;5.82;;;2.22;;
49826;SDS011;35715;51.570;6.036;2022-09-09T05:46:10;7.53;;;2.25;;
49826;SDS011;35715;51.570;6.036;2022-09-09T05:48:38;12.57;;;3.78;;
49826;SDS011;35715;51.570;6.036;2022-09-09T05:53:37;9.98;;;2.90;;
49826;SDS011;35715;51.570;6.036;2022-09-09T05:56:10;14.30;;;3.03;;
49826;SDS011;35715;51.570;6.036;2022-09-09T05:58:39;7.95;;;3.85;;
49826;SDS011;35715;51.570;6.036;2022-09-09T06:01:26;6.07;;;2.08;;
49826;SDS011;35715;51.570;6.036;2022-09-09T06:03:54;6.50;;;2.63;;
49826;SDS011;35715;51.570;6.036;2022-09-09T06:06:21;12.70;;;3.53;;
49826;SDS011;35715;51.570;6.036;2022-09-09T06:08:52;8.93;;;2.67;;
49826;SDS011;35715;51.570;6.036;2022-09-09T06:11:21;6.88;;;2.60;;
49826;SDS011;35715;51.570;6.036;2022-09-09T06:13:48;5.18;;;3.00;;
49826;SDS011;35715;51.570;6.036;2022-09-09T06:16:16;6.18;;;3.08;;
49826;SDS011;35715;51.570;6.036;2022-09-09T06:18:43;3.28;;;2.05;;
49826;SDS011;35715;51.570;6.036;2022-09-09T06:23:41;6.80;;;3.38;;
49826;SDS011;35715;51.570;6.036;2022-09-09T06:26:14;7.15;;;2.15;;
49826;SDS011;35715;51.570;6.036;2022-09-09T06:28:47;7.95;;;3.17;;
49826;SDS011;35715;51.570;6.036;2022-09-09T06:31:21;7.82;;;2.72;;
49826;SDS011;35715;51.570;6.036;2022-09-09T06:33:49;10.65;;;3.53;;
49826;SDS011;35715;51.570;6.036;2022-09-09T06:36:19;8.20;;;2.45;;
49826;SDS011;35715;51.570;6.036;2022-09-09T06:38:47;14.02;;;3.40;;
49826;SDS011;35715;51.570;6.036;2022-09-09T06:43:44;9.55;;;2.70;;
49826;SDS011;35715;51.570;6.036;2022-09-09T06:46:12;3.17;;;2.17;;
49826;SDS011;35715;51.570;6.036;2022-09-09T06:48:42;7.60;;;2.33;;
49826;SDS011;35715;51.570;6.036;2022-09-09T06:51:21;8.32;;;2.75;;
49826;SDS011;35715;51.570;6.036;2022-09-09T06:53:52;11.20;;;2.60;;
49826;SDS011;35715;51.570;6.036;2022-09-09T06:56:20;14.23;;;4.40;;
49826;SDS011;35715;51.570;6.036;2022-09-09T06:58:47;5.43;;;2.53;;
49826;SDS011;35715;51.570;6.036;2022-09-09T07:01:24;6.38;;;2.28;;
49826;SDS011;35715;51.570;6.036;2022-09-09T07:03:52;6.35;;;2.63;;
49826;SDS011;35715;51.570;6.036;2022-09-09T07:06:24;16.33;;;4.25;;
49826;SDS011;35715;51.570;6.036;2022-09-09T07:08:51;9.00;;;2.40;;
49826;SDS011;35715;51.570;6.036;2022-09-09T07:13:59;10.07;;;1.92;;
49826;SDS011;35715;51.570;6.036;2022-09-09T07:16:26;8.15;;;2.20;;
49826;SDS011;35715;51.570;6.036;2022-09-09T07:18:56;6.25;;;2.30;;
49826;SDS011;35715;51.570;6.036;2022-09-09T07:24:14;9.85;;;3.38;;
49826;SDS011;35715;51.570;6.036;2022-09-09T07:26:40;9.85;;;2.92;;
49826;SDS011;35715;51.570;6.036;2022-09-09T07:29:06;4.85;;;1.77;;
49826;SDS011;35715;51.570;6.036;2022-09-09T07:31:41;8.00;;;2.63;;
49826;SDS011;35715;51.570;6.036;2022-09-09T07:34:07;6.97;;;1.88;;
49826;SDS011;35715;51.570;6.036;2022-09-09T07:36:33;13.52;;;2.95;;
49826;SDS011;35715;51.570;6.036;2022-09-09T07:39:02;6.13;;;1.92;;
49826;SDS011;35715;51.570;6.036;2022-09-09T07:41:38;10.85;;;2.55;;
49826;SDS011;35715;51.570;6.036;2022-09-09T07:44:16;9.07;;;1.88;;
49826;SDS011;35715;51.570;6.036;2022-09-09T07:46:49;12.48;;;2.63;;
49826;SDS011;35715;51.570;6.036;2022-09-09T07:52:07;5.95;;;2.33;;
49826;SDS011;35715;51.570;6.036;2022-09-09T07:54:33;10.90;;;2.72;;
49826;SDS011;35715;51.570;6.036;2022-09-09T07:56:58;8.75;;;2.55;;
49826;SDS011;35715;51.570;6.036;2022-09-09T07:59:23;7.95;;;2.13;;
49826;SDS011;35715;51.570;6.036;2022-09-09T08:01:50;4.63;;;1.48;;
49826;SDS011;35715;51.570;6.036;2022-09-09T08:06:46;8.60;;;1.88;;
49826;SDS011;35715;51.570;6.036;2022-09-09T08:09:13;7.57;;;1.63;;
49826;SDS011;35715;51.570;6.036;2022-09-09T08:11:40;4.93;;;1.95;;
49826;SDS011;35715;51.570;6.036;2022-09-09T08:14:06;10.20;;;2.50;;
49826;SDS011;35715;51.570;6.036;2022-09-09T08:16:33;5.43;;;2.35;;
49826;SDS011;35715;51.570;6.036;2022-09-09T08:19:01;8.65;;;2.17;;
49826;SDS011;35715;51.570;6.036;2022-09-09T08:21:30;9.75;;;2.72;;
49826;SDS011;35715;51.570;6.036;2022-09-09T08:23:57;7.57;;;2.08;;
49826;SDS011;35715;51.570;6.036;2022-09-09T08:26:28;8.93;;;3.05;;
49826;SDS011;35715;51.570;6.036;2022-09-09T08:28:58;3.45;;;1.42;;
49826;SDS011;35715;51.570;6.036;2022-09-09T08:31:37;3.95;;;0.98;;
49826;SDS011;35715;51.570;6.036;2022-09-09T08:36:31;17.92;;;2.25;;
49826;SDS011;35715;51.570;6.036;2022-09-09T08:38:58;7.65;;;1.63;;
49826;SDS011;35715;51.570;6.036;2022-09-09T08:41:36;5.75;;;1.63;;
49826;SDS011;35715;51.570;6.036;2022-09-09T09:11:51;7.65;;;2.00;;
49826;SDS011;35715;51.570;6.036;2022-09-09T09:14:23;8.50;;;2.35;;
49826;SDS011;35715;51.570;6.036;2022-09-09T09:16:58;4.93;;;1.65;;
49826;SDS011;35715;51.570;6.036;2022-09-09T09:19:23;5.18;;;1.73;;
49826;SDS011;35715;51.570;6.036;2022-09-09T09:21:54;7.50;;;2.47;;
49826;SDS011;35715;51.570;6.036;2022-09-09T09:27:14;5.82;;;1.35;;
49826;SDS011;35715;51.570;6.036;2022-09-09T09:29:56;12.77;;;1.70;;
49826;SDS011;35715;51.570;6.036;2022-09-09T09:32:24;7.68;;;1.63;;
49826;SDS011;35715;51.570;6.036;2022-09-09T09:34:54;4.00;;;2.22;;
49826;SDS011;35715;51.570;6.036;2022-09-09T09:37:25;3.30;;;1.45;;
49826;SDS011;35715;51.570;6.036;2022-09-09T09:42:53;5.30;;;1.13;;
49826;SDS011;35715;51.570;6.036;2022-09-09T09:45:26;8.52;;;1.85;;
49826;SDS011;35715;51.570;6.036;2022-09-09T09:48:00;4.88;;;1.60;;
49826;SDS011;35715;51.570;6.036;2022-09-09T09:52:58;13.07;;;1.52;;
49826;SDS011;35715;51.570;6.036;2022-09-09T09:55:26;2.20;;;1.05;;
49826;SDS011;35715;51.570;6.036;2022-09-09T09:57:59;5.63;;;1.65;;
49826;SDS011;35715;51.570;6.036;2022-09-09T10:00:28;5.40;;;1.20;;
49826;SDS011;35715;51.570;6.036;2022-09-09T10:02:54;10.57;;;2.13;;
49826;SDS011;35715;51.570;6.036;2022-09-09T10:05:23;6.00;;;1.40;;
49826;SDS011;35715;51.570;6.036;2022-09-09T10:26:40;5.55;;;1.13;;
49826;SDS011;35715;51.570;6.036;2022-09-09T10:29:22;13.77;;;3.25;;
49826;SDS011;35715;51.570;6.036;2022-09-09T10:34:39;7.30;;;1.60;;
49826;SDS011;35715;51.570;6.036;2022-09-09T10:37:22;5.68;;;2.53;;
49826;SDS011;35715;51.570;6.036;2022-09-09T10:55:27;5.00;;;1.20;;
49826;SDS011;35715;51.570;6.036;2022-09-09T10:58:01;5.43;;;1.20;;
49826;SDS011;35715;51.570;6.036;2022-09-09T11:00:51;8.00;;;2.00;;
49826;SDS011;35715;51.570;6.036;2022-09-09T11:03:22;5.80;;;1.67;;
49826;SDS011;35715;51.570;6.036;2022-09-09T11:05:57;12.02;;;2.30;;
49826;SDS011;35715;51.570;6.036;2022-09-09T11:08:29;6.30;;;1.73;;
49826;SDS011;35715;51.570;6.036;2022-09-09T11:14:09;5.82;;;1.50;;
49826;SDS011;35715;51.570;6.036;2022-09-09T11:16:59;6.07;;;1.77;;
49826;SDS011;35715;51.570;6.036;2022-09-09T11:19:33;7.53;;;2.22;;
49826;SDS011;35715;51.570;6.036;2022-09-09T11:22:05;5.05;;;1.35;;
49826;SDS011;35715;51.570;6.036;2022-09-09T11:24:41;6.85;;;1.02;;
49826;SDS011;35715;51.570;6.036;2022-09-09T11:27:22;8.10;;;1.73;;
49826;SDS011;35715;51.570;6.036;2022-09-09T11:33:08;6.93;;;1.50;;
49826;SDS011;35715;51.570;6.036;2022-09-09T11:38:46;6.43;;;2.05;;
49826;SDS011;35715;51.570;6.036;2022-09-09T11:41:32;9.13;;;1.85;;
49826;SDS011;35715;51.570;6.036;2022-09-09T11:43:59;8.20;;;2.08;;
49826;SDS011;35715;51.570;6.036;2022-09-09T11:46:32;9.43;;;2.28;;
49826;SDS011;35715;51.570;6.036;2022-09-09T11:49:03;17.23;;;2.20;;
49826;SDS011;35715;51.570;6.036;2022-09-09T11:51:33;4.13;;;2.03;;
49826;SDS011;35715;51.570;6.036;2022-09-09T11:54:01;4.38;;;1.60;;
49826;SDS011;35715;51.570;6.036;2022-09-09T11:56:46;6.15;;;1.88;;
49826;SDS011;35715;51.570;6.036;2022-09-09T12:02:25;4.68;;;1.83;;
49826;SDS011;35715;51.570;6.036;2022-09-09T12:04:57;7.53;;;2.15;;
49826;SDS011;35715;51.570;6.036;2022-09-09T12:16:02;11.25;;;2.38;;
49826;SDS011;35715;51.570;6.036;2022-09-09T12:18:37;4.45;;;1.73;;
49826;SDS011;35715;51.570;6.036;2022-09-09T12:24:00;4.57;;;1.42;;
49826;SDS011;35715;51.570;6.036;2022-09-09T12:26:34;4.60;;;1.50;;
49826;SDS011;35715;51.570;6.036;2022-09-09T12:40:00;2.33;;;1.35;;
49826;SDS011;35715;51.570;6.036;2022-09-09T12:42:29;6.22;;;1.95;;
49826;SDS011;35715;51.570;6.036;2022-09-09T12:44:59;7.07;;;2.38;;
49826;SDS011;35715;51.570;6.036;2022-09-09T12:47:43;5.50;;;2.00;;
49826;SDS011;35715;51.570;6.036;2022-09-09T12:50:24;2.78;;;0.98;;
49826;SDS011;35715;51.570;6.036;2022-09-09T12:52:51;6.20;;;1.98;;
49826;SDS011;35715;51.570;6.036;2022-09-09T12:55:21;3.60;;;1.52;;
49826;SDS011;35715;51.570;6.036;2022-09-09T12:57:50;5.78;;;1.45;;
49826;SDS011;35715;51.570;6.036;2022-09-09T13:03:02;3.08;;;1.20;;
49826;SDS011;35715;51.570;6.036;2022-09-09T13:05:41;6.95;;;2.42;;
49826;SDS011;35715;51.570;6.036;2022-09-09T13:08:10;6.82;;;2.58;;
49826;SDS011;35715;51.570;6.036;2022-09-09T13:13:41;1.95;;;1.17;;
49826;SDS011;35715;51.570;6.036;2022-09-09T13:19:00;5.30;;;2.22;;
49826;SDS011;35715;51.570;6.036;2022-09-09T13:21:37;2.22;;;1.73;;
49826;SDS011;35715;51.570;6.036;2022-09-09T13:24:26;2.45;;;1.23;;
49826;SDS011;35715;51.570;6.036;2022-09-09T13:26:56;3.47;;;1.48;;
49826;SDS011;35715;51.570;6.036;2022-09-09T13:29:21;5.50;;;3.08;;
49826;SDS011;35715;51.570;6.036;2022-09-09T13:31:47;7.38;;;2.20;;
49826;SDS011;35715;51.570;6.036;2022-09-09T13:34:14;7.72;;;1.80;;
49826;SDS011;35715;51.570;6.036;2022-09-09T13:36:52;10.18;;;2.45;;
49826;SDS011;35715;51.570;6.036;2022-09-09T13:39:36;5.15;;;1.67;;
49826;SDS011;35715;51.570;6.036;2022-09-09T13:42:02;7.32;;;2.47;;
49826;SDS011;35715;51.570;6.036;2022-09-09T13:44:30;7.25;;;2.10;;
49826;SDS011;35715;51.570;6.036;2022-09-09T13:47:05;3.55;;;2.05;;
49826;SDS011;35715;51.570;6.036;2022-09-09T13:49:47;3.38;;;1.58;;
49826;SDS011;35715;51.570;6.036;2022-09-09T13:52:13;6.63;;;1.05;;
49826;SDS011;35715;51.570;6.036;2022-09-09T13:54:42;12.23;;;1.88;;
49826;SDS011;35715;51.570;6.036;2022-09-09T13:57:15;5.78;;;1.90;;
49826;SDS011;35715;51.570;6.036;2022-09-09T13:59:45;4.78;;;2.28;;
49826;SDS011;35715;51.570;6.036;2022-09-09T14:02:12;5.25;;;1.48;;
49826;SDS011;35715;51.570;6.036;2022-09-09T14:04:37;1.75;;;0.90;;
49826;SDS011;35715;51.570;6.036;2022-09-09T14:07:03;3.70;;;2.10;;
49826;SDS011;35715;51.570;6.036;2022-09-09T14:09:28;3.05;;;1.10;;
49826;SDS011;35715;51.570;6.036;2022-09-09T14:11:54;6.20;;;1.10;;
49826;SDS011;35715;51.570;6.036;2022-09-09T14:14:22;7.15;;;1.30;;
49826;SDS011;35715;51.570;6.036;2022-09-09T14:16:48;7.45;;;1.83;;
49826;SDS011;35715;51.570;6.036;2022-09-09T14:19:13;4.45;;;1.42;;
49826;SDS011;35715;51.570;6.036;2022-09-09T14:21:39;4.32;;;0.82;;
49826;SDS011;35715;51.570;6.036;2022-09-09T14:24:04;4.60;;;1.67;;
49826;SDS011;35715;51.570;6.036;2022-09-09T14:26:30;4.65;;;1.38;;
49826;SDS011;35715;51.570;6.036;2022-09-09T14:28:56;8.70;;;2.00;;
49826;SDS011;35715;51.570;6.036;2022-09-09T14:31:25;4.95;;;1.27;;
49826;SDS011;35715;51.570;6.036;2022-09-09T14:33:51;7.97;;;2.05;;
49826;SDS011;35715;51.570;6.036;2022-09-09T14:36:17;4.40;;;1.27;;
49826;SDS011;35715;51.570;6.036;2022-09-09T14:38:46;5.05;;;1.65;;
49826;SDS011;35715;51.570;6.036;2022-09-09T14:41:13;10.93;;;2.13;;
49826;SDS011;35715;51.570;6.036;2022-09-09T14:43:44;4.68;;;1.48;;
49826;SDS011;35715;51.570;6.036;2022-09-09T14:46:12;4.60;;;1.40;;
49826;SDS011;35715;51.570;6.036;2022-09-09T14:48:39;15.52;;;2.88;;
49826;SDS011;35715;51.570;6.036;2022-09-09T14:51:12;3.25;;;0.88;;
49826;SDS011;35715;51.570;6.036;2022-09-09T14:53:40;5.97;;;1.48;;
49826;SDS011;35715;51.570;6.036;2022-09-09T14:56:07;4.25;;;1.55;;
49826;SDS011;35715;51.570;6.036;2022-09-09T14:58:34;3.17;;;1.30;;
49826;SDS011;35715;51.570;6.036;2022-09-09T15:01:07;2.47;;;1.10;;
49826;SDS011;35715;51.570;6.036;2022-09-09T15:03:37;6.95;;;1.25;;
49826;SDS011;35715;51.570;6.036;2022-09-09T15:06:05;5.53;;;1.27;;
49826;SDS011;35715;51.570;6.036;2022-09-09T15:08:31;2.80;;;1.48;;
49826;SDS011;35715;51.570;6.036;2022-09-09T15:11:09;3.75;;;1.02;;
49826;SDS011;35715;51.570;6.036;2022-09-09T15:13:35;3.70;;;1.77;;
49826;SDS011;35715;51.570;6.036;2022-09-09T15:16:09;6.85;;;1.40;;
49826;SDS011;35715;51.570;6.036;2022-09-09T15:18:42;3.17;;;0.95;;
49826;SDS011;35715;51.570;6.036;2022-09-09T15:21:13;4.85;;;1.67;;
49826;SDS011;35715;51.570;6.036;2022-09-09T15:23:40;3.08;;;1.50;;
49826;SDS011;35715;51.570;6.036;2022-09-09T15:26:06;3.83;;;1.17;;
49826;SDS011;35715;51.570;6.036;2022-09-09T15:28:32;1.45;;;0.88;;
49826;SDS011;35715;51.570;6.036;2022-09-09T15:33:58;2.65;;;1.17;;
49826;SDS011;35715;51.570;6.036;2022-09-09T15:36:29;2.95;;;1.48;;
49826;SDS011;35715;51.570;6.036;2022-09-09T15:38:57;5.40;;;1.50;;
49826;SDS011;35715;51.570;6.036;2022-09-09T15:41:34;4.53;;;1.52;;
49826;SDS011;35715;51.570;6.036;2022-09-09T15:44:00;3.90;;;1.40;;
49826;SDS011;35715;51.570;6.036;2022-09-09T15:46:30;4.30;;;2.10;;
49826;SDS011;35715;51.570;6.036;2022-09-09T15:48:58;3.72;;;2.20;;
49826;SDS011;35715;51.570;6.036;2022-09-09T15:51:45;4.35;;;1.92;;
49826;SDS011;35715;51.570;6.036;2022-09-09T15:54:16;1.67;;;1.13;;
49826;SDS011;35715;51.570;6.036;2022-09-09T15:56:43;5.93;;;1.52;;
49826;SDS011;35715;51.570;6.036;2022-09-09T15:59:10;6.57;;;1.83;;
49826;SDS011;35715;51.570;6.036;2022-09-09T16:04:07;3.88;;;2.20;;
49826;SDS011;35715;51.570;6.036;2022-09-09T16:06:33;2.97;;;1.42;;
49826;SDS011;35715;51.570;6.036;2022-09-09T16:08:58;5.65;;;1.80;;
49826;SDS011;35715;51.570;6.036;2022-09-09T16:11:33;4.20;;;1.37;;
49826;SDS011;35715;51.570;6.036;2022-09-09T16:14:00;7.05;;;1.55;;
49826;SDS011;35715;51.570;6.036;2022-09-09T16:16:27;7.43;;;1.48;;
49826;SDS011;35715;51.570;6.036;2022-09-09T16:18:54;3.78;;;1.48;;
49826;SDS011;35715;51.570;6.036;2022-09-09T16:21:27;4.95;;;1.25;;
49826;SDS011;35715;51.570;6.036;2022-09-09T16:23:55;4.38;;;1.15;;
49826;SDS011;35715;51.570;6.036;2022-09-09T16:26:21;7.43;;;1.85;;
49826;SDS011;35715;51.570;6.036;2022-09-09T16:28:47;2.85;;;1.95;;
49826;SDS011;35715;51.570;6.036;2022-09-09T16:31:18;3.50;;;0.98;;
49826;SDS011;35715;51.570;6.036;2022-09-09T16:33:47;21.20;;;2.40;;
49826;SDS011;35715;51.570;6.036;2022-09-09T16:36:15;3.00;;;1.33;;
49826;SDS011;35715;51.570;6.036;2022-09-09T16:38:47;2.83;;;0.63;;
49826;SDS011;35715;51.570;6.036;2022-09-09T16:41:24;1.75;;;0.30;;
49826;SDS011;35715;51.570;6.036;2022-09-09T16:44:02;0.40;;;0.17;;
49826;SDS011;35715;51.570;6.036;2022-09-09T16:46:30;0.68;;;0.13;;
49826;SDS011;35715;51.570;6.036;2022-09-09T16:48:57;1.85;;;0.20;;
49826;SDS011;35715;51.570;6.036;2022-09-09T16:51:37;1.63;;;0.52;;
49826;SDS011;35715;51.570;6.036;2022-09-09T16:54:07;0.70;;;0.20;;
49826;SDS011;35715;51.570;6.036;2022-09-09T16:56:34;0.10;;;0.10;;
49826;SDS011;35715;51.570;6.036;2022-09-09T16:59:16;2.92;;;0.75;;
49826;SDS011;35715;51.570;6.036;2022-09-09T17:01:44;1.08;;;0.30;;
49826;SDS011;35715;51.570;6.036;2022-09-09T17:04:11;4.10;;;1.27;;
49826;SDS011;35715;51.570;6.036;2022-09-09T17:06:40;1.98;;;0.52;;
49826;SDS011;35715;51.570;6.036;2022-09-09T17:09:09;3.30;;;0.30;;
49826;SDS011;35715;51.570;6.036;2022-09-09T17:14:11;0.98;;;0.40;;
49826;SDS011;35715;51.570;6.036;2022-09-09T17:16:39;0.90;;;0.32;;
49826;SDS011;35715;51.570;6.036;2022-09-09T17:19:05;0.55;;;0.32;;
49826;SDS011;35715;51.570;6.036;2022-09-09T17:21:42;5.22;;;1.00;;
49826;SDS011;35715;51.570;6.036;2022-09-09T17:24:07;0.45;;;0.32;;
49826;SDS011;35715;51.570;6.036;2022-09-09T17:26:33;5.43;;;0.90;;
49826;SDS011;35715;51.570;6.036;2022-09-09T17:28:59;1.00;;;0.73;;
49826;SDS011;35715;51.570;6.036;2022-09-09T17:31:29;2.15;;;0.90;;
49826;SDS011;35715;51.570;6.036;2022-09-09T17:33:56;1.02;;;0.40;;
49826;SDS011;35715;51.570;6.036;2022-09-09T17:36:25;0.80;;;0.40;;
49826;SDS011;35715;51.570;6.036;2022-09-09T17:38:55;11.05;;;1.23;;
49826;SDS011;35715;51.570;6.036;2022-09-09T17:41:26;6.32;;;1.20;;
49826;SDS011;35715;51.570;6.036;2022-09-09T17:43:54;1.58;;;0.85;;
49826;SDS011;35715;51.570;6.036;2022-09-09T17:46:21;0.70;;;0.47;;
49826;SDS011;35715;51.570;6.036;2022-09-09T17:48:49;1.35;;;0.80;;
49826;SDS011;35715;51.570;6.036;2022-09-09T17:54:03;0.77;;;0.73;;
49826;SDS011;35715;51.570;6.036;2022-09-09T17:56:32;3.13;;;0.40;;
49826;SDS011;35715;51.570;6.036;2022-09-09T17:58:59;0.85;;;0.30;;
49826;SDS011;35715;51.570;6.036;2022-09-09T18:01:26;1.45;;;0.47;;
49826;SDS011;35715;51.570;6.036;2022-09-09T18:03:55;2.13;;;0.30;;
49826;SDS011;35715;51.570;6.036;2022-09-09T18:06:24;1.90;;;0.73;;
49826;SDS011;35715;51.570;6.036;2022-09-09T18:08:58;2.20;;;1.15;;
49826;SDS011;35715;51.570;6.036;2022-09-09T18:11:30;0.88;;;0.28;;
49826;SDS011;35715;51.570;6.036;2022-09-09T18:13:58;0.75;;;0.40;;
49826;SDS011;35715;51.570;6.036;2022-09-09T18:16:26;2.03;;;0.52;;
49826;SDS011;35715;51.570;6.036;2022-09-09T18:18:56;0.55;;;0.28;;
49826;SDS011;35715;51.570;6.036;2022-09-09T18:23:51;0.35;;;0.30;;
49826;SDS011;35715;51.570;6.036;2022-09-09T18:26:18;2.83;;;0.68;;
49826;SDS011;35715;51.570;6.036;2022-09-09T18:28:49;0.30;;;0.30;;